Time;durP1;ratioP1;P1;durP2;ratioP2;P2;SDS_P1;SDS_P2;PMS_P1;PMS_P2;Temp;Humidity;BMP_temperature;BMP_pressure;BME280_temperature;BME280_humidity;BME280_pressure;Samples;Min_cycle;Max_cycle;Signal;HPM_P1;HPM_P2
2023/10/10 00:00:03;;;;;;;4.78;3.75;;;15.60;99.90;;;;;;4963547;28;20030;-85
2023/10/10 00:02:37;;;;;;;5.95;4.00;;;15.60;99.90;;;;;;4963817;28;20079;-85
2023/10/10 00:05:12;;;;;;;6.05;3.67;;;15.60;99.90;;;;;;4945080;28;20035;-85
2023/10/10 00:07:37;;;;;;;5.57;4.00;;;15.60;99.90;;;;;;4948207;28;20105;-85
2023/10/10 00:10:03;;;;;;;4.85;4.05;;;15.60;99.90;;;;;;4948215;28;20547;-85
2023/10/10 00:12:30;;;;;;;7.07;4.13;;;15.60;99.90;;;;;;4948687;28;20381;-86
2023/10/10 00:14:58;;;;;;;5.03;3.70;;;15.60;99.90;;;;;;4955484;28;20373;-85
2023/10/10 00:17:29;;;;;;;6.40;4.10;;;15.60;99.90;;;;;;4954782;28;20039;-86
2023/10/10 00:20:15;;;;;;;6.75;4.32;;;15.60;99.90;;;;;;4966904;28;20066;-86
2023/10/10 00:22:43;;;;;;;5.05;4.00;;;15.60;99.90;;;;;;4955322;28;20090;-85
2023/10/10 00:25:12;;;;;;;6.47;4.20;;;15.60;99.90;;;;;;4929751;28;20031;-85
2023/10/10 00:27:43;;;;;;;5.18;3.53;;;15.60;99.90;;;;;;4948819;28;20035;-85
2023/10/10 00:30:11;;;;;;;6.90;4.55;;;15.60;99.90;;;;;;4965052;28;20030;-84
2023/10/10 00:32:42;;;;;;;5.50;3.90;;;15.60;99.90;;;;;;4949991;28;20479;-86
2023/10/10 00:35:09;;;;;;;6.22;3.50;;;15.60;99.90;;;;;;4953973;28;20035;-85
2023/10/10 00:37:35;;;;;;;6.75;5.10;;;15.60;99.90;;;;;;4966199;28;20134;-85
2023/10/10 00:40:29;;;;;;;4.75;4.25;;;15.50;99.90;;;;;;4948240;28;20133;-85
2023/10/10 00:42:50;;;;;;;6.45;4.00;;;15.50;99.90;;;;;;4947125;28;20034;-85
2023/10/10 00:45:15;;;;;;;6.82;4.25;;;15.40;99.90;;;;;;4946095;28;20385;-85
2023/10/10 00:47:44;;;;;;;5.80;4.32;;;15.40;99.90;;;;;;4955869;28;20034;-86
2023/10/10 00:50:18;;;;;;;4.47;3.38;;;15.40;99.90;;;;;;4965991;28;20051;-86
2023/10/10 00:52:48;;;;;;;5.90;4.22;;;15.40;99.90;;;;;;4951810;28;20038;-86
2023/10/10 00:55:21;;;;;;;6.80;4.50;;;15.30;99.90;;;;;;4949365;28;20031;-85
2023/10/10 00:57:51;;;;;;;4.32;3.63;;;15.30;99.90;;;;;;4952292;28;20385;-85
2023/10/10 01:00:17;;;;;;;;;;;15.30;99.90;;;;;;4967139;28;20027;-83
2023/10/10 01:02:43;;;;;;;4.95;3.65;;;15.20;99.90;;;;;;4952442;28;20370;-85
2023/10/10 01:05:12;;;;;;;5.75;3.92;;;15.20;99.90;;;;;;4966145;28;20031;-86
2023/10/10 01:07:38;;;;;;;4.93;3.47;;;15.20;99.90;;;;;;4949977;28;20034;-85
2023/10/10 01:10:11;;;;;;;7.13;4.88;;;15.20;99.90;;;;;;4948228;28;20034;-85
2023/10/10 01:12:42;;;;;;;5.07;3.65;;;15.20;99.90;;;;;;4978568;28;20034;-87
2023/10/10 01:15:24;;;;;;;5.35;4.20;;;15.20;99.90;;;;;;4955788;28;20027;-85
2023/10/10 01:17:51;;;;;;;6.43;4.03;;;15.20;99.90;;;;;;4970480;28;20035;-85
2023/10/10 01:20:25;;;;;;;5.20;3.90;;;15.20;99.90;;;;;;4952269;28;20038;-85
2023/10/10 01:22:56;;;;;;;4.95;4.10;;;15.10;99.90;;;;;;4949304;28;20090;-86
2023/10/10 01:26:05;;;;;;;6.22;3.97;;;15.10;99.90;;;;;;4968142;28;20138;-86
2023/10/10 01:33:23;;;;;;;8.77;3.63;;;15.10;99.90;;;;;;4949378;28;20034;-86
2023/10/10 01:35:49;;;;;;;;;;;15.10;99.90;;;;;;4933193;28;20403;-86
2023/10/10 01:38:41;;;;;;;4.60;3.55;;;15.10;99.90;;;;;;4947242;28;19914;-86
2023/10/10 01:41:24;;;;;;;5.55;4.13;;;15.00;99.90;;;;;;4946190;28;20044;-85
2023/10/10 01:43:53;;;;;;;6.15;3.75;;;15.00;99.90;;;;;;4938525;28;20403;-86
2023/10/10 01:46:28;;;;;;;5.90;4.18;;;15.00;99.90;;;;;;4948749;28;20038;-85
2023/10/10 01:48:54;;;;;;;6.82;4.38;;;14.90;99.90;;;;;;4965047;28;20047;-86
2023/10/10 01:51:20;;;;;;;8.60;5.45;;;14.90;99.90;;;;;;4950893;28;20068;-85
2023/10/10 01:53:48;;;;;;;7.57;4.88;;;14.90;99.90;;;;;;4946828;28;20175;-85
2023/10/10 01:56:14;;;;;;;7.72;5.40;;;14.80;99.90;;;;;;4958879;28;20037;-85
2023/10/10 01:58:41;;;;;;;5.68;4.78;;;14.70;99.90;;;;;;4960048;28;20031;-85
2023/10/10 02:01:16;;;;;;;6.75;4.95;;;14.70;99.90;;;;;;4951605;28;20050;-85
2023/10/10 02:03:43;;;;;;;6.07;4.90;;;14.60;99.90;;;;;;4954193;28;20427;-86
2023/10/10 02:06:25;;;;;;;6.88;5.18;;;14.60;99.90;;;;;;4951159;28;20118;-86
2023/10/10 02:08:51;;;;;;;7.60;5.55;;;14.70;99.90;;;;;;4963042;28;20153;-86
2023/10/10 02:11:20;;;;;;;6.22;5.15;;;14.60;99.90;;;;;;4968316;28;20026;-88
2023/10/10 02:13:50;;;;;;;7.88;5.72;;;14.60;99.90;;;;;;4959460;28;20035;-86
2023/10/10 02:16:23;;;;;;;;;;;14.50;99.90;;;;;;4935813;28;20500;-86
2023/10/10 02:18:51;;;;;;;6.65;4.20;;;14.50;99.90;;;;;;4966874;28;19925;-86
2023/10/10 02:21:42;;;;;;;5.25;4.35;;;14.50;99.90;;;;;;4932695;28;20058;-87
2023/10/10 02:26:54;;;;;;;10.90;5.82;;;14.50;99.90;;;;;;4950540;28;20081;-85
2023/10/10 02:32:06;;;;;;;7.72;5.60;;;14.50;99.90;;;;;;4951455;28;20027;-86
2023/10/10 02:34:34;;;;;;;8.18;5.35;;;14.40;99.90;;;;;;4951620;28;20031;-86
2023/10/10 02:38:04;;;;;;;7.57;5.90;;;14.40;99.90;;;;;;4951157;28;20361;-86
2023/10/10 02:40:15;;;;;;;7.53;5.53;;;14.40;99.90;;;;;;4947809;28;20039;-86
2023/10/10 02:43:18;;;;;;;7.68;5.88;;;14.30;99.90;;;;;;4966950;28;20051;-86
2023/10/10 02:45:37;;;;;;;6.43;5.00;;;14.20;99.90;;;;;;4976693;28;20037;-87
2023/10/10 02:48:07;;;;;;;8.05;6.05;;;14.20;99.90;;;;;;4951537;28;20490;-86
2023/10/10 02:50:40;;;;;;;7.03;5.88;;;14.20;99.90;;;;;;4950890;28;20023;-85
2023/10/10 02:53:08;;;;;;;8.32;6.45;;;14.20;99.90;;;;;;4965207;28;20022;-86
2023/10/10 02:55:50;;;;;;;9.10;6.65;;;14.10;99.90;;;;;;4965412;28;20121;-86
2023/10/10 02:58:28;;;;;;;8.25;6.57;;;14.10;99.90;;;;;;4957027;28;20027;-87
2023/10/10 03:00:57;;;;;;;8.52;5.82;;;14.00;99.90;;;;;;4959769;28;20543;-85
2023/10/10 03:03:26;;;;;;;6.88;5.65;;;14.00;99.90;;;;;;4955642;28;20039;-86
2023/10/10 03:05:54;;;;;;;7.97;6.13;;;14.00;99.90;;;;;;4950690;28;20034;-83
2023/10/10 03:08:34;;;;;;;7.40;6.25;;;13.90;99.90;;;;;;4931281;28;20019;-86
2023/10/10 03:11:14;;;;;;;8.02;6.20;;;13.90;99.90;;;;;;4947999;28;20046;-86
2023/10/10 03:13:54;;;;;;;10.32;6.07;;;13.90;99.90;;;;;;4956070;28;20102;-85
2023/10/10 03:27:00;;;;;;;6.72;5.68;;;13.90;99.90;;;;;;4938219;29;20075;-85
2023/10/10 03:29:47;;;;;;;9.13;5.88;;;13.90;99.90;;;;;;4893724;29;20493;-85
2023/10/10 03:32:31;;;;;;;8.18;5.75;;;13.90;99.90;;;;;;4933557;29;20034;-85
2023/10/10 03:35:04;;;;;;;8.43;5.75;;;13.80;99.90;;;;;;4932408;29;20032;-85
2023/10/10 03:37:39;;;;;;;6.63;5.28;;;13.90;99.90;;;;;;4916098;29;20643;-86
2023/10/10 05:24:26;;;;;;;8.68;5.90;;;14.60;99.90;;;;;;4953414;28;20027;-87
2023/10/10 05:26:56;;;;;;;8.32;5.20;;;14.60;99.90;;;;;;4950100;28;20103;-86
2023/10/10 05:29:24;;;;;;;;;;;14.60;99.90;;;;;;4947982;28;20030;-87
2023/10/10 05:31:56;;;;;;;6.45;4.03;;;14.60;99.90;;;;;;4952363;28;19933;-86
2023/10/10 05:34:27;;;;;;;8.68;5.20;;;14.60;99.90;;;;;;4947337;28;20027;-86
2023/10/10 05:36:54;;;;;;;8.65;5.70;;;14.70;99.90;;;;;;4935498;28;20031;-86
2023/10/10 05:39:21;;;;;;;10.88;6.38;;;14.60;99.90;;;;;;4948966;28;20027;-87
2023/10/10 05:41:47;;;;;;;10.98;7.53;;;14.70;99.90;;;;;;4933441;28;20042;-86
2023/10/10 05:44:16;;;;;;;10.18;7.30;;;14.70;99.90;;;;;;4967344;28;20377;-86
2023/10/10 05:46:43;;;;;;;10.65;7.65;;;14.70;99.90;;;;;;4953345;28;20042;-86
2023/10/10 05:49:10;;;;;;;12.88;7.85;;;14.70;99.90;;;;;;4953647;28;20018;-88
2023/10/10 05:51:36;;;;;;;9.95;6.25;;;14.70;99.90;;;;;;4973100;28;20039;-88
2023/10/10 05:54:02;;;;;;;11.57;7.90;;;14.70;99.90;;;;;;4955750;28;20637;-88
2023/10/10 05:56:29;;;;;;;12.50;7.53;;;14.70;99.90;;;;;;4952379;28;20317;-89
2023/10/10 05:58:56;;;;;;;11.45;7.55;;;14.70;99.90;;;;;;4933170;28;20050;-88
2023/10/10 06:01:23;;;;;;;14.23;8.35;;;14.70;99.90;;;;;;4950536;28;20070;-87
2023/10/10 06:03:51;;;;;;;11.70;7.60;;;14.80;99.90;;;;;;4963320;28;20109;-88
2023/10/10 06:06:18;;;;;;;13.18;8.43;;;14.70;99.90;;;;;;4972871;28;20081;-89
2023/10/10 06:08:44;;;;;;;15.35;8.88;;;14.70;99.90;;;;;;4952545;28;20476;-87
2023/10/10 06:11:14;;;;;;;20.80;12.85;;;14.70;99.90;;;;;;4966185;28;20471;-87
2023/10/10 06:13:46;;;;;;;15.85;9.80;;;14.80;99.90;;;;;;4935652;28;20485;-88
2023/10/10 06:16:14;;;;;;;15.43;9.77;;;14.70;99.90;;;;;;4934933;28;20115;-87
2023/10/10 06:18:50;;;;;;;14.40;9.65;;;14.70;99.90;;;;;;4934731;28;20138;-89
2023/10/10 06:21:18;;;;;;;15.73;9.43;;;14.70;99.90;;;;;;4930290;28;20528;-87
2023/10/10 06:23:44;;;;;;;19.05;10.90;;;14.70;99.90;;;;;;4977149;28;20078;-89
2023/10/10 06:26:12;;;;;;;13.77;8.25;;;14.70;99.90;;;;;;4963385;28;20102;-88
2023/10/10 06:28:48;;;;;;;14.68;9.65;;;14.70;99.90;;;;;;4975263;28;20120;-88
2023/10/10 06:31:20;;;;;;;15.77;10.18;;;14.70;99.90;;;;;;4949371;28;20038;-88
2023/10/10 06:33:50;;;;;;;15.55;10.20;;;14.70;99.90;;;;;;4945754;28;20547;-90
2023/10/10 06:38:59;;;;;;;14.90;10.20;;;14.70;99.90;;;;;;4947303;28;20027;-88
2023/10/10 06:41:27;;;;;;;15.77;10.52;;;14.70;99.90;;;;;;4965456;28;20035;-88
2023/10/10 06:43:53;;;;;;;15.73;10.30;;;14.70;99.90;;;;;;4961073;28;20511;-88
2023/10/10 06:46:18;;;;;;;19.27;12.05;;;14.70;99.90;;;;;;4948934;28;20069;-88
2023/10/10 06:48:47;;;;;;;16.52;11.23;;;14.70;99.90;;;;;;4965688;28;20075;-88
2023/10/10 06:51:21;;;;;;;19.50;11.77;;;14.80;99.90;;;;;;4961321;28;20039;-88
2023/10/10 06:53:48;;;;;;;19.85;13.50;;;14.80;99.90;;;;;;4961329;28;20035;-88
2023/10/10 06:56:17;;;;;;;17.13;11.60;;;14.80;99.90;;;;;;4948441;28;20063;-89
2023/10/10 06:58:47;;;;;;;18.23;11.77;;;14.80;99.90;;;;;;4963762;28;20467;-86
2023/10/10 07:01:19;;;;;;;19.83;12.23;;;14.90;99.90;;;;;;4930291;28;20581;-88
2023/10/10 07:03:54;;;;;;;19.13;12.48;;;14.90;99.90;;;;;;4948680;28;20033;-88
2023/10/10 07:06:23;;;;;;;19.85;13.63;;;15.00;99.90;;;;;;4960516;28;20023;-88
2023/10/10 07:09:10;;;;;;;20.67;13.80;;;15.00;99.90;;;;;;4948296;28;20144;-89
2023/10/10 07:11:38;;;;;;;17.75;12.57;;;15.10;99.90;;;;;;4974293;28;20518;-88
2023/10/10 07:14:11;;;;;;;17.15;11.90;;;15.10;99.90;;;;;;4948800;28;20066;-87
2023/10/10 07:16:42;;;;;;;16.83;12.82;;;15.00;99.90;;;;;;4949217;28;20039;-87
2023/10/10 07:19:29;;;;;;;14.85;11.15;;;15.00;99.90;;;;;;4930791;28;20023;-89
2023/10/10 07:21:54;;;;;;;17.65;12.85;;;15.00;99.90;;;;;;4962602;28;20105;-87
2023/10/10 07:24:25;;;;;;;18.38;12.63;;;14.80;99.90;;;;;;4966056;28;20027;-89
2023/10/10 07:27:05;;;;;;;15.15;11.50;;;14.90;99.90;;;;;;4949351;28;20081;-88
2023/10/10 07:29:57;;;;;;;15.20;11.07;;;14.80;99.90;;;;;;4971207;28;20399;-87
2023/10/10 07:32:28;;;;;;;11.32;9.27;;;14.90;99.90;;;;;;4946344;28;20054;-88
2023/10/10 07:34:54;;;;;;;11.50;7.50;;;15.00;99.90;;;;;;4931000;28;20023;-87
2023/10/10 07:37:27;;;;;;;13.90;8.90;;;15.10;99.90;;;;;;4951994;28;20054;-86
2023/10/10 07:42:37;;;;;;;9.88;6.45;;;15.10;99.90;;;;;;4953743;28;20047;-87
2023/10/10 07:45:13;;;;;;;10.45;8.38;;;15.10;99.90;;;;;;4965915;28;20030;-91
2023/10/10 07:51:06;;;;;;;12.13;8.35;;;15.20;99.90;;;;;;4931038;28;20502;-86
2023/10/10 07:53:33;;;;;;;10.63;7.70;;;15.20;99.90;;;;;;4928267;28;20043;-90
2023/10/10 07:58:27;;;;;;;12.35;8.45;;;15.20;99.90;;;;;;4950214;28;20034;-89
2023/10/10 08:01:07;;;;;;;7.82;6.32;;;15.30;99.90;;;;;;4931443;28;20071;-89
2023/10/10 08:03:33;;;;;;;12.25;8.32;;;15.30;99.90;;;;;;4957009;28;20090;-87
2023/10/10 08:05:59;;;;;;;9.55;7.90;;;15.30;99.90;;;;;;4947030;29;20027;-88
2023/10/10 08:08:26;;;;;;;12.05;9.13;;;15.30;99.90;;;;;;4946341;28;20034;-88
2023/10/10 08:10:51;;;;;;;9.27;7.60;;;15.30;99.90;;;;;;4942362;28;20035;-88
2023/10/10 08:13:19;;;;;;;11.93;8.68;;;15.40;99.90;;;;;;4913327;29;20031;-88
2023/10/10 08:18:39;;;;;;;9.23;7.40;;;15.60;99.90;;;;;;4951002;28;20031;-87
2023/10/10 08:23:30;;;;;;;8.98;7.30;;;15.90;99.90;;;;;;4962512;28;20027;-86
2023/10/10 08:25:57;;;;;;;8.75;5.90;;;15.80;99.90;;;;;;4934501;29;20020;-87
2023/10/10 08:28:23;;;;;;;9.05;7.10;;;15.90;99.90;;;;;;4948879;28;20046;-87
2023/10/10 08:30:50;;;;;;;10.27;6.82;;;15.90;99.90;;;;;;4956546;28;20045;-87
2023/10/10 08:33:16;;;;;;;8.02;5.78;;;16.00;99.90;;;;;;4956359;28;20023;-87
2023/10/10 08:35:42;;;;;;;10.63;7.70;;;16.10;99.90;;;;;;4953613;28;20081;-87
2023/10/10 08:38:13;;;;;;;10.32;7.95;;;16.10;99.90;;;;;;4955559;28;20039;-87
2023/10/10 08:40:40;;;;;;;9.55;8.02;;;16.20;99.90;;;;;;4952592;28;20035;-88
2023/10/10 08:43:09;;;;;;;7.55;5.93;;;16.20;99.90;;;;;;4969230;28;20042;-87
2023/10/10 08:45:43;;;;;;;11.10;6.35;;;16.30;99.90;;;;;;4972247;28;20113;-87
2023/10/10 08:48:13;;;;;;;10.10;7.72;;;16.40;99.90;;;;;;4952430;28;20038;-87
2023/10/10 08:50:40;;;;;;;;;;;16.20;99.90;;;;;;4956411;28;20034;-88
2023/10/10 08:53:10;;;;;;;9.63;5.43;;;16.40;99.90;;;;;;4968266;28;20294;-88
2023/10/10 08:55:38;;;;;;;7.90;4.53;;;16.50;99.90;;;;;;4949613;28;20038;-89
2023/10/10 08:58:09;;;;;;;6.55;4.82;;;16.60;99.90;;;;;;4948714;28;20123;-87
2023/10/10 09:00:35;;;;;;;8.07;4.72;;;16.70;99.90;;;;;;4966838;28;20015;-87
2023/10/10 09:03:01;;;;;;;7.20;4.78;;;16.70;99.90;;;;;;4951599;28;20038;-87
2023/10/10 09:05:28;;;;;;;7.32;4.78;;;17.00;99.90;;;;;;4952737;28;20027;-85
2023/10/10 09:07:55;;;;;;;6.32;5.28;;;17.00;99.90;;;;;;4964203;28;20530;-88
2023/10/10 09:10:39;;;;;;;6.90;4.90;;;17.20;99.90;;;;;;4954227;28;20026;-89
2023/10/10 09:13:07;;;;;;;7.40;4.65;;;17.20;99.90;;;;;;4968029;28;20042;-87
2023/10/10 09:15:34;;;;;;;11.88;8.15;;;17.20;99.90;;;;;;4950479;28;20043;-88
2023/10/10 09:18:17;;;;;;;10.68;8.75;;;17.00;99.90;;;;;;4954317;28;20107;-87
2023/10/10 09:20:46;;;;;;;10.48;6.82;;;17.00;99.90;;;;;;4969565;28;20118;-87
2023/10/10 09:23:26;;;;;;;9.43;7.35;;;17.10;99.90;;;;;;4967639;28;20053;-87
2023/10/10 09:28:55;;;;;;;8.18;6.57;;;17.30;99.90;;;;;;4950321;28;20035;-88
2023/10/10 09:31:31;;;;;;;8.10;5.93;;;17.10;99.90;;;;;;4966728;28;20039;-86
2023/10/10 09:33:57;;;;;;;7.65;5.07;;;17.30;99.90;;;;;;4948153;28;20652;-86
2023/10/10 09:36:27;;;;;;;8.60;6.20;;;17.40;99.90;;;;;;4948830;28;20038;-88
2023/10/10 09:39:09;;;;;;;9.00;6.47;;;17.30;99.90;;;;;;4952552;28;20022;-89
2023/10/10 09:49:46;;;;;;;12.32;8.30;;;17.50;99.90;;;;;;4971699;28;20035;-87
2023/10/10 10:06:51;;;;;;;7.95;4.88;;;18.10;99.90;;;;;;4950127;28;20039;-88
2023/10/10 10:09:32;;;;;;;8.25;5.45;;;18.60;99.90;;;;;;4968812;28;20480;-87
2023/10/10 10:12:33;;;;;;;9.57;6.22;;;18.60;99.90;;;;;;4966808;28;20385;-87
2023/10/10 10:15:08;;;;;;;7.85;5.88;;;18.50;99.90;;;;;;4964991;28;20038;-90
2023/10/10 10:17:48;;;;;;;5.38;3.40;;;18.70;99.90;;;;;;4950400;28;20027;-88
2023/10/10 10:20:45;;;;;;;7.05;4.78;;;19.00;99.90;;;;;;4960970;28;20061;-89
2023/10/10 10:23:27;;;;;;;7.07;4.00;;;19.10;99.90;;;;;;4967143;28;20484;-91
2023/10/10 10:25:54;;;;;;;7.03;4.55;;;19.10;99.90;;;;;;4951312;28;20054;-91
2023/10/10 10:28:28;;;;;;;8.13;5.32;;;19.20;99.90;;;;;;4945992;28;20027;-89
2023/10/10 10:30:54;;;;;;;7.82;6.63;;;19.10;99.90;;;;;;4951067;28;20022;-89
2023/10/10 10:33:22;;;;;;;9.23;6.15;;;19.20;99.90;;;;;;4951382;28;20476;-90
2023/10/10 10:35:58;;;;;;;9.93;5.95;;;19.30;99.90;;;;;;4964807;28;20431;-90
2023/10/10 10:38:24;;;;;;;8.55;5.03;;;19.50;99.90;;;;;;4952338;28;20042;-89
2023/10/10 10:40:51;;;;;;;5.85;3.45;;;19.40;99.90;;;;;;4954678;28;20031;-92
2023/10/10 10:43:20;;;;;;;6.15;4.60;;;19.60;99.90;;;;;;4950023;28;20129;-87
2023/10/10 10:45:52;;;;;;;8.60;6.30;;;19.60;99.90;;;;;;4966924;28;20058;-88
2023/10/10 10:48:33;;;;;;;6.88;4.82;;;19.70;99.90;;;;;;4968399;28;20039;-87
2023/10/10 10:51:25;;;;;;;7.75;4.45;;;19.80;99.90;;;;;;4935969;28;20072;-88
2023/10/10 10:53:58;;;;;;;9.43;7.13;;;19.80;99.90;;;;;;4949029;28;20197;-87
2023/10/10 10:59:19;;;;;;;14.13;9.90;;;19.50;99.90;;;;;;4964267;28;20494;-88
2023/10/10 11:01:52;;;;;;;8.05;5.47;;;19.60;99.90;;;;;;4948332;28;20039;-87
2023/10/10 11:05:07;;;;;;;9.02;5.38;;;19.90;99.90;;;;;;4951144;28;20128;-86
2023/10/10 11:07:27;;;;;;;6.97;4.85;;;20.10;99.90;;;;;;4956599;28;20129;-87
2023/10/10 11:09:53;;;;;;;5.88;4.00;;;20.10;99.90;;;;;;4966037;28;20070;-88
2023/10/10 11:12:31;;;;;;;6.63;4.75;;;20.30;99.90;;;;;;4963656;28;20041;-86
2023/10/10 11:14:57;;;;;;;6.78;4.45;;;20.20;99.90;;;;;;4965152;28;20023;-87
2023/10/10 11:17:22;;;;;;;6.72;4.70;;;20.30;99.90;;;;;;4967459;28;20030;-87
2023/10/10 11:19:53;;;;;;;6.15;4.07;;;20.50;99.90;;;;;;4950309;28;20643;-88
2023/10/10 11:22:38;;;;;;;6.50;4.25;;;20.60;99.90;;;;;;4948498;28;20035;-88
2023/10/10 11:25:05;;;;;;;5.78;3.90;;;20.50;99.90;;;;;;4952309;28;20027;-86
2023/10/10 11:27:44;;;;;;;6.78;4.32;;;20.50;99.90;;;;;;4964827;28;20022;-88
2023/10/10 11:30:24;;;;;;;8.35;4.70;;;20.50;99.90;;;;;;4955185;28;20121;-85
2023/10/10 11:32:52;;;;;;;7.13;4.88;;;20.60;99.90;;;;;;4967815;28;20058;-88
2023/10/10 11:35:26;;;;;;;5.97;3.90;;;20.70;99.90;;;;;;4968548;28;20027;-88
2023/10/10 11:38:15;;;;;;;8.32;4.72;;;20.60;99.90;;;;;;4962235;28;20037;-88
2023/10/10 11:40:43;;;;;;;6.00;4.10;;;20.50;99.90;;;;;;4950057;28;20042;-87
2023/10/10 11:43:11;;;;;;;6.95;4.05;;;20.50;99.90;;;;;;4950497;28;20399;-86
2023/10/10 11:45:40;;;;;;;7.40;5.50;;;20.50;99.90;;;;;;4964488;28;20046;-89
2023/10/10 11:48:12;;;;;;;6.85;3.35;;;20.60;99.90;;;;;;4948625;28;20043;-87
2023/10/10 11:50:45;;;;;;;4.55;3.35;;;20.70;99.90;;;;;;4963804;28;20050;-88
2023/10/10 11:53:13;;;;;;;5.07;3.08;;;21.00;99.90;;;;;;4964409;28;20288;-87
2023/10/10 11:55:42;;;;;;;4.68;2.67;;;21.10;99.90;;;;;;4964465;28;20100;-87
2023/10/10 11:58:16;;;;;;;4.38;2.38;;;21.30;99.90;;;;;;4967148;28;20041;-86
2023/10/10 12:04:04;;;;;;;5.40;3.42;;;21.10;99.90;;;;;;4961660;28;20126;-88
2023/10/10 12:06:30;;;;;;;4.10;2.00;;;21.20;99.90;;;;;;4960904;28;20035;-88
2023/10/10 12:08:56;;;;;;;4.95;3.00;;;21.30;99.90;;;;;;4950325;28;20057;-89
2023/10/10 12:11:21;;;;;;;5.18;2.90;;;21.20;99.90;;;;;;4963444;28;20031;-88
2023/10/10 12:13:48;;;;;;;9.30;3.97;;;21.30;99.90;;;;;;4950087;28;20058;-88
2023/10/10 12:16:17;;;;;;;4.93;2.97;;;21.10;99.90;;;;;;4966180;28;20034;-88
2023/10/10 12:18:44;;;;;;;4.80;2.90;;;21.10;99.90;;;;;;4964516;28;20031;-88
2023/10/10 12:21:14;;;;;;;4.45;2.60;;;21.40;99.90;;;;;;4968142;28;20277;-87
2023/10/10 12:23:41;;;;;;;5.53;3.40;;;21.40;99.90;;;;;;4949170;28;20130;-88
2023/10/10 12:26:09;;;;;;;4.15;2.20;;;21.40;99.90;;;;;;4949032;28;20034;-87
2023/10/10 12:28:35;;;;;;;7.05;4.05;;;21.20;99.90;;;;;;4948796;28;20045;-87
2023/10/10 12:31:04;;;;;;;5.13;2.85;;;20.90;99.90;;;;;;4964244;28;20027;-86
2023/10/10 12:33:31;;;;;;;4.40;2.30;;;21.10;99.90;;;;;;4966788;28;20086;-86
2023/10/10 12:35:57;;;;;;;6.30;4.35;;;21.20;99.90;;;;;;4964973;28;20630;-85
2023/10/10 12:38:23;;;;;;;7.32;4.13;;;21.30;99.90;;;;;;4950016;28;20062;-87
2023/10/10 12:40:50;;;;;;;6.97;3.28;;;21.30;99.90;;;;;;4950844;28;20062;-88
2023/10/10 12:43:17;;;;;;;6.28;3.30;;;21.40;99.90;;;;;;4933550;28;20115;-88
2023/10/10 12:45:42;;;;;;;5.05;2.47;;;21.40;99.90;;;;;;4950772;28;20037;-89
2023/10/10 12:48:15;;;;;;;9.25;3.42;;;21.60;99.90;;;;;;4948500;28;20035;-89
2023/10/10 12:50:47;;;;;;;6.47;3.45;;;21.60;99.90;;;;;;4954783;28;20030;-90
2023/10/10 12:53:18;;;;;;;5.72;3.42;;;21.60;99.90;;;;;;4968443;28;20041;-88
2023/10/10 12:55:51;;;;;;;4.47;2.15;;;21.50;99.90;;;;;;4963916;28;20027;-88
2023/10/10 12:58:20;;;;;;;6.07;2.40;;;21.60;99.90;;;;;;4965381;28;20035;-88
2023/10/10 13:00:50;;;;;;;6.40;3.55;;;21.70;99.90;;;;;;4968491;28;20074;-89
2023/10/10 13:03:28;;;;;;;4.45;2.22;;;21.80;99.90;;;;;;4970017;28;20048;-89
2023/10/10 13:05:59;;;;;;;3.53;1.90;;;22.00;99.90;;;;;;4950946;28;20034;-88
2023/10/10 13:08:26;;;;;;;5.63;2.75;;;22.10;99.90;;;;;;4953492;28;20102;-89
2023/10/10 13:10:54;;;;;;;4.93;2.55;;;22.00;99.90;;;;;;4967290;28;20475;-87
2023/10/10 13:13:27;;;;;;;5.25;3.17;;;22.00;99.90;;;;;;4970586;28;20038;-88
2023/10/10 13:16:22;;;;;;;4.13;1.95;;;21.90;99.90;;;;;;4965164;28;20114;-89
2023/10/10 13:18:48;;;;;;;7.55;3.90;;;21.90;99.90;;;;;;4965133;28;20280;-88
2023/10/10 13:21:15;;;;;;;12.13;3.75;;;21.70;99.90;;;;;;4968412;28;20041;-90
2023/10/10 13:23:43;;;;;;;5.72;3.08;;;21.70;99.90;;;;;;4952371;28;20503;-90
2023/10/10 13:26:10;;;;;;;5.53;2.30;;;21.90;99.90;;;;;;4952272;28;20113;-89
2023/10/10 13:28:38;;;;;;;4.95;2.65;;;22.00;99.90;;;;;;4964926;28;20035;-91
2023/10/10 13:31:04;;;;;;;4.20;2.05;;;22.20;99.90;;;;;;4966310;28;20038;-90
2023/10/10 13:33:29;;;;;;;4.93;2.85;;;22.20;99.90;;;;;;4963086;28;20031;-88
2023/10/10 13:35:55;;;;;;;10.27;4.13;;;22.00;99.90;;;;;;4963096;28;20378;-88
2023/10/10 13:38:20;;;;;;;6.82;4.00;;;21.90;99.90;;;;;;4950246;28;20472;-91
2023/10/10 13:40:48;;;;;;;5.10;3.00;;;21.90;99.90;;;;;;4965253;28;20550;-88
2023/10/10 13:43:18;;;;;;;4.22;1.98;;;22.00;99.90;;;;;;4951169;28;20038;-88
2023/10/10 13:45:48;;;;;;;3.53;1.33;;;22.00;99.90;;;;;;4952778;28;20031;-88
2023/10/10 13:48:18;;;;;;;;;;;21.80;99.90;;;;;;4967837;28;20034;-88
2023/10/10 13:50:45;;;;;;;5.40;1.38;;;21.80;99.90;;;;;;4951273;28;19918;-88
2023/10/10 13:53:14;;;;;;;3.60;1.40;;;22.00;99.90;;;;;;4966895;28;20043;-90
2023/10/10 13:55:44;;;;;;;3.45;1.60;;;21.80;99.90;;;;;;4937710;28;20034;-90
2023/10/10 13:58:13;;;;;;;3.25;1.45;;;21.90;99.90;;;;;;4966911;28;20046;-91
2023/10/10 14:00:41;;;;;;;3.65;1.13;;;21.80;99.90;;;;;;4953229;28;20034;-88
2023/10/10 14:03:08;;;;;;;5.00;1.55;;;21.70;99.90;;;;;;4969232;28;20550;-89
2023/10/10 14:05:35;;;;;;;2.72;1.40;;;21.80;99.90;;;;;;4951225;28;20035;-93
2023/10/10 14:08:03;;;;;;;4.00;1.92;;;21.90;99.90;;;;;;4950750;28;20546;-89
2023/10/10 14:10:39;;;;;;;5.70;2.47;;;21.90;99.90;;;;;;4951306;28;20034;-88
2023/10/10 14:13:21;;;;;;;4.63;1.85;;;21.90;99.90;;;;;;4953836;28;20089;-90
2023/10/10 14:16:01;;;;;;;3.90;1.70;;;22.00;99.90;;;;;;4935598;28;20185;-91
2023/10/10 14:18:51;;;;;;;3.95;1.73;;;22.10;99.90;;;;;;4953777;28;20039;-89
2023/10/10 14:21:25;;;;;;;4.72;2.33;;;22.10;99.90;;;;;;4966972;28;20105;-92
2023/10/10 14:24:13;;;;;;;3.78;1.67;;;22.00;99.90;;;;;;4953096;28;20034;-89
2023/10/10 14:26:43;;;;;;;4.18;1.55;;;22.10;99.90;;;;;;4952774;28;20459;-91
2023/10/10 14:29:12;;;;;;;4.13;1.42;;;22.00;99.90;;;;;;4966919;28;20122;-88
2023/10/10 14:31:42;;;;;;;4.63;1.83;;;21.80;99.90;;;;;;4951528;28;20035;-91
2023/10/10 14:34:11;;;;;;;3.90;1.67;;;21.70;99.90;;;;;;4951541;28;20330;-89
2023/10/10 14:36:39;;;;;;;4.25;1.33;;;21.40;99.90;;;;;;4944139;28;20070;-88
2023/10/10 14:39:28;;;;;;;2.90;1.00;;;21.30;99.90;;;;;;4965786;28;20031;-91
2023/10/10 14:41:57;;;;;;;3.45;0.80;;;21.30;99.90;;;;;;4946451;28;20042;-89
2023/10/10 14:44:23;;;;;;;3.60;1.13;;;21.10;99.90;;;;;;4952004;28;20042;-92
2023/10/10 14:46:51;;;;;;;3.08;1.27;;;21.20;99.90;;;;;;4967411;28;20038;-90
2023/10/10 14:49:16;;;;;;;3.15;1.02;;;21.10;99.90;;;;;;4968760;28;20046;-88
2023/10/10 14:51:50;;;;;;;3.15;1.00;;;21.10;99.90;;;;;;4967376;28;20073;-89
2023/10/10 14:54:17;;;;;;;3.42;1.13;;;21.20;99.90;;;;;;4966206;28;20035;-90
2023/10/10 14:56:47;;;;;;;3.25;1.20;;;21.10;99.90;;;;;;4967680;28;20040;-91
2023/10/10 14:59:18;;;;;;;3.20;0.88;;;21.20;99.90;;;;;;4966935;28;20030;-88
2023/10/10 15:01:47;;;;;;;1.95;0.85;;;21.20;99.90;;;;;;4933876;28;20411;-89
2023/10/10 15:04:17;;;;;;;2.90;0.82;;;21.30;99.90;;;;;;4949664;28;20085;-89
2023/10/10 15:06:44;;;;;;;4.68;1.52;;;21.30;99.90;;;;;;4966397;28;20038;-89
2023/10/10 15:09:20;;;;;;;3.08;0.90;;;21.30;99.90;;;;;;4965065;28;20045;-89
2023/10/10 15:11:47;;;;;;;3.30;1.00;;;21.40;99.90;;;;;;4935970;28;20092;-89
2023/10/10 15:14:13;;;;;;;5.43;1.08;;;21.50;99.90;;;;;;4967211;28;20034;-87
2023/10/10 15:16:41;;;;;;;3.15;0.90;;;21.40;99.90;;;;;;4967661;28;20061;-89
2023/10/10 15:19:08;;;;;;;4.13;1.10;;;21.50;99.90;;;;;;4935038;28;20030;-89
2023/10/10 15:21:35;;;;;;;4.05;1.05;;;21.50;99.90;;;;;;4968071;28;20043;-88
2023/10/10 15:24:11;;;;;;;4.57;1.27;;;21.40;99.90;;;;;;4964350;28;20468;-87
2023/10/10 15:26:37;;;;;;;4.43;1.45;;;21.40;99.90;;;;;;4963377;28;20042;-89
2023/10/10 15:29:03;;;;;;;2.40;1.00;;;21.40;99.90;;;;;;4950703;28;20392;-89
2023/10/10 15:31:31;;;;;;;2.63;0.80;;;21.30;99.90;;;;;;4964429;28;20492;-89
2023/10/10 15:33:58;;;;;;;4.85;1.10;;;21.20;99.90;;;;;;4963236;28;20045;-88
2023/10/10 15:36:30;;;;;;;2.28;0.90;;;21.30;99.90;;;;;;4950375;28;20033;-89
2023/10/10 15:39:06;;;;;;;2.50;0.98;;;21.30;99.90;;;;;;4951842;28;20031;-89
2023/10/10 15:41:36;;;;;;;2.92;0.80;;;21.20;99.90;;;;;;4949397;28;20031;-88
2023/10/10 15:44:06;;;;;;;2.78;0.98;;;21.10;99.90;;;;;;4950317;28;20038;-89
2023/10/10 15:46:37;;;;;;;2.35;0.90;;;21.10;99.90;;;;;;4966288;28;20089;-88
2023/10/10 15:49:09;;;;;;;4.28;0.90;;;21.00;99.90;;;;;;4948794;28;20042;-89
2023/10/10 15:51:38;;;;;;;3.15;0.80;;;20.90;99.90;;;;;;4946926;28;20146;-88
2023/10/10 15:54:08;;;;;;;2.63;0.77;;;20.90;99.90;;;;;;4949541;28;20030;-88
2023/10/10 15:56:34;;;;;;;2.13;0.60;;;20.90;99.90;;;;;;4963535;28;20034;-88
2023/10/10 15:59:01;;;;;;;2.83;0.80;;;20.90;99.90;;;;;;4962512;28;20094;-88